createdAt,value
2022-08-20T00:01:40.009Z,65.47
2022-08-20T00:04:07.082Z,65.49
2022-08-20T00:06:33.928Z,65.28
2022-08-20T00:09:00.619Z,64.55
2022-08-20T00:11:27.594Z,64.91
2022-08-20T00:13:59.087Z,65.13
2022-08-20T00:16:32.375Z,65.36
2022-08-20T00:19:05.121Z,65.79
2022-08-20T00:21:31.953Z,65.48
2022-08-20T00:24:01.525Z,65.57
2022-08-20T00:26:28.494Z,65.14
2022-08-20T00:28:55.745Z,64.71
2022-08-20T00:31:23.922Z,64.55
2022-08-20T00:33:51.642Z,65.16
2022-08-20T00:36:19.970Z,65.86
2022-08-20T00:38:47.075Z,65.91
2022-08-20T00:41:19.981Z,66.01
2022-08-20T00:44:03.675Z,66.24
2022-08-20T00:46:31.648Z,66.30
2022-08-20T00:49:02.508Z,66.54
2022-08-20T00:51:39.023Z,66.93
2022-08-20T00:54:15.546Z,67.02
2022-08-20T00:56:47.051Z,67.55
2022-08-20T00:59:20.962Z,67.79
2022-08-20T01:01:55.468Z,67.68
2022-08-20T01:04:30.859Z,67.95
2022-08-20T01:06:57.744Z,68.09
2022-08-20T01:09:49.426Z,67.98
2022-08-20T01:12:13.925Z,67.69
2022-08-20T01:14:42.904Z,68.79
2022-08-20T01:17:15.532Z,69.10
2022-08-20T01:19:47.454Z,69.37
2022-08-20T01:22:41.950Z,69.68
2022-08-20T01:25:16.468Z,69.47
2022-08-20T01:27:45.231Z,68.95
2022-08-20T01:30:12.881Z,68.98
2022-08-20T01:32:39.769Z,69.56
2022-08-20T01:35:09.421Z,69.63
2022-08-20T01:37:36.485Z,69.74
2022-08-20T01:40:09.334Z,69.96
2022-08-20T01:42:52.740Z,69.54
2022-08-20T01:45:28.070Z,69.97
2022-08-20T01:47:58.344Z,69.99
2022-08-20T01:50:28.504Z,70.33
2022-08-20T01:53:03.888Z,70.62
2022-08-20T01:55:31.848Z,70.84
2022-08-20T01:57:59.975Z,70.78
2022-08-20T02:00:27.801Z,70.92
2022-08-20T02:02:54.723Z,71.15
2022-08-20T02:05:23.403Z,71.08
2022-08-20T02:07:50.238Z,71.26
2022-08-20T02:10:18.676Z,71.41
2022-08-20T02:12:45.900Z,71.59
2022-08-20T02:15:13.553Z,71.61
2022-08-20T02:17:41.330Z,71.55
2022-08-20T02:20:13.979Z,71.96
2022-08-20T02:22:52.622Z,72.00
2022-08-20T02:25:23.149Z,72.07
2022-08-20T02:27:52.781Z,72.19
2022-08-20T02:30:32.707Z,72.07
2022-08-20T02:33:04.942Z,72.46
2022-08-20T02:35:32.339Z,72.01
2022-08-20T02:38:02.362Z,71.84
2022-08-20T02:40:31.508Z,72.14
2022-08-20T02:43:01.986Z,72.10
2022-08-20T02:45:35.467Z,71.37
2022-08-20T02:48:03.769Z,71.66
2022-08-20T02:50:31.153Z,71.86
2022-08-20T02:52:57.889Z,72.19
2022-08-20T02:55:27.037Z,72.87
2022-08-20T02:57:59.583Z,72.87
2022-08-20T03:00:34.186Z,72.83
2022-08-20T03:03:10.594Z,72.75
2022-08-20T03:05:40.692Z,73.25
2022-08-20T03:08:09.880Z,73.53
2022-08-20T03:10:38.260Z,73.13
2022-08-20T03:13:10.706Z,72.73
2022-08-20T03:15:40.789Z,72.46
2022-08-20T03:18:07.685Z,72.52
2022-08-20T03:20:35.257Z,73.00
2022-08-20T03:23:02.737Z,73.28
2022-08-20T03:25:30.396Z,73.10
2022-08-20T03:27:58.110Z,72.90
2022-08-20T03:30:28.155Z,73.19
2022-08-20T03:32:55.660Z,73.66
2022-08-20T03:35:24.857Z,73.61
2022-08-20T03:37:52.624Z,73.81
2022-08-20T03:40:26.703Z,73.85
2022-08-20T03:42:53.928Z,73.85
2022-08-20T03:45:22.293Z,72.81
2022-08-20T03:47:51.217Z,72.20
2022-08-20T03:50:24.024Z,72.70
2022-08-20T03:52:52.397Z,73.20
2022-08-20T03:55:20.931Z,73.69
2022-08-20T03:57:51.554Z,74.00
2022-08-20T04:00:32.163Z,74.09
2022-08-20T04:03:00.453Z,73.93
2022-08-20T04:05:30.714Z,73.60
2022-08-20T04:08:03.174Z,73.20
2022-08-20T04:10:31.946Z,73.15
2022-08-20T04:12:59.503Z,73.42
2022-08-20T04:15:27.584Z,73.16
2022-08-20T04:17:54.648Z,73.12
2022-08-20T04:20:25.345Z,72.70
2022-08-20T04:22:58.834Z,72.56
2022-08-20T04:25:35.858Z,72.78
2022-08-20T04:28:06.477Z,72.90
2022-08-20T04:30:33.745Z,72.77
2022-08-20T04:33:01.397Z,72.65
2022-08-20T04:35:30.722Z,71.82
2022-08-20T04:38:08.419Z,71.48
2022-08-20T04:40:54.873Z,71.37
2022-08-20T04:43:23.389Z,71.17
2022-08-20T04:45:51.444Z,70.84
2022-08-20T04:48:20.268Z,70.96
2022-08-20T04:50:47.222Z,71.31
2022-08-20T04:53:17.586Z,71.67
2022-08-20T04:55:46.011Z,71.34
2022-08-20T04:58:20.532Z,71.33
2022-08-20T05:00:57.313Z,71.19
2022-08-20T05:03:29.616Z,71.04
2022-08-20T05:05:57.332Z,71.10
2022-08-20T05:08:25.733Z,71.30
2022-08-20T05:10:58.088Z,70.95
2022-08-20T05:13:42.356Z,70.47
2022-08-20T05:16:09.610Z,70.40
2022-08-20T05:18:36.645Z,70.20
2022-08-20T05:21:05.583Z,69.13
2022-08-20T05:23:35.141Z,68.82
2022-08-20T05:26:07.109Z,68.16
2022-08-20T05:28:35.537Z,67.12
2022-08-20T05:31:17.506Z,66.12
2022-08-20T05:33:44.763Z,65.57
2022-08-20T05:36:12.100Z,65.27
2022-08-20T05:38:42.445Z,64.75
2022-08-20T05:41:29.342Z,64.67
2022-08-20T05:44:01.694Z,64.62
2022-08-20T05:46:31.993Z,64.68
2022-08-20T05:49:00.989Z,65.23
2022-08-20T05:51:29.435Z,65.15
2022-08-20T05:53:58.006Z,65.11
2022-08-20T05:56:29.660Z,64.59
2022-08-20T05:58:57.309Z,64.19
2022-08-20T06:01:24.098Z,63.39
2022-08-20T06:04:09.775Z,62.78
2022-08-20T06:06:45.574Z,62.19
2022-08-20T06:09:31.374Z,61.14
2022-08-20T06:12:02.191Z,60.22
2022-08-20T06:14:30.145Z,60.14
2022-08-20T06:17:06.379Z,60.35
2022-08-20T06:19:34.991Z,60.95
2022-08-20T06:22:17.780Z,60.51
2022-08-20T06:24:47.946Z,59.47
2022-08-20T06:27:16.499Z,59.63
2022-08-20T06:29:44.003Z,57.50
2022-08-20T06:32:11.034Z,56.59
2022-08-20T06:34:37.724Z,55.89
2022-08-20T06:37:31.482Z,54.99
2022-08-20T06:40:20.419Z,54.83
2022-08-20T06:42:48.792Z,54.71
2022-08-20T06:45:25.753Z,54.94
2022-08-20T06:47:57.512Z,54.31
2022-08-20T06:50:29.429Z,53.43
2022-08-20T06:52:57.583Z,53.17
2022-08-20T06:55:25.329Z,52.20
2022-08-20T06:57:58.869Z,51.84
2022-08-20T07:00:26.393Z,51.61
2022-08-20T07:02:53.276Z,52.60
2022-08-20T07:05:20.479Z,52.75
2022-08-20T07:07:49.279Z,52.34
2022-08-20T07:10:18.898Z,52.57
2022-08-20T07:12:46.642Z,52.43
2022-08-20T07:15:14.639Z,52.87
2022-08-20T07:17:42.283Z,52.48
2022-08-20T07:20:14.732Z,52.13
2022-08-20T07:22:42.848Z,51.60
2022-08-20T07:25:13.725Z,52.06
2022-08-20T07:27:41.331Z,51.97
2022-08-20T07:30:30.962Z,51.87
2022-08-20T07:32:58.754Z,51.44
2022-08-20T07:35:27.580Z,51.22
2022-08-20T07:37:54.514Z,51.20
2022-08-20T07:40:26.879Z,51.52
2022-08-20T07:42:55.139Z,51.69
2022-08-20T07:45:23.139Z,52.65
2022-08-20T07:47:53.264Z,53.18
2022-08-20T07:50:23.457Z,52.75
2022-08-20T07:52:53.377Z,53.08
2022-08-20T07:55:21.677Z,52.88
2022-08-20T07:57:50.061Z,52.47
2022-08-20T08:00:20.142Z,52.22
2022-08-20T08:02:47.765Z,52.07
2022-08-20T08:05:15.591Z,51.94
2022-08-20T08:07:43.130Z,51.38
2022-08-20T08:10:14.939Z,51.04
2022-08-20T08:12:47.203Z,51.06
2022-08-20T08:15:18.658Z,50.45
2022-08-20T08:17:48.267Z,50.63
2022-08-20T08:20:16.786Z,50.80
2022-08-20T08:22:43.928Z,50.84
2022-08-20T08:25:13.203Z,50.44
2022-08-20T08:27:40.570Z,49.75
2022-08-20T08:30:09.548Z,49.57
2022-08-20T08:32:58.460Z,48.78
2022-08-20T08:35:26.184Z,49.29
2022-08-20T08:37:53.743Z,48.85
2022-08-20T08:40:22.208Z,48.44
2022-08-20T08:42:57.882Z,48.16
2022-08-20T08:45:33.936Z,47.79
2022-08-20T08:48:01.411Z,47.88
2022-08-20T08:50:53.171Z,48.02
2022-08-20T08:53:27.651Z,47.55
2022-08-20T08:55:54.702Z,47.43
2022-08-20T08:58:21.953Z,47.21
2022-08-20T09:00:56.588Z,46.82
2022-08-20T09:03:33.077Z,45.84
2022-08-20T09:06:02.046Z,45.48
2022-08-20T09:08:52.174Z,44.68
2022-08-20T09:11:21.902Z,45.16
2022-08-20T09:13:49.573Z,45.12
2022-08-20T09:16:16.664Z,44.08
2022-08-20T09:18:43.432Z,42.91
2022-08-20T09:21:10.476Z,42.43
2022-08-20T09:23:38.261Z,41.49
2022-08-20T09:26:05.372Z,41.62
2022-08-20T09:28:35.135Z,40.66
2022-08-20T09:31:04.530Z,40.83
2022-08-20T09:33:33.590Z,40.02
2022-08-20T09:36:00.318Z,39.80
2022-08-20T09:38:27.482Z,40.66
2022-08-20T09:40:54.465Z,40.86
2022-08-20T09:43:21.477Z,40.44
2022-08-20T09:45:48.274Z,40.00
2022-08-20T09:48:15.020Z,39.85
2022-08-20T09:50:47.726Z,40.42
2022-08-20T09:53:16.788Z,40.18
2022-08-20T09:55:45.895Z,40.45
2022-08-20T09:58:37.757Z,40.91
2022-08-20T10:01:14.614Z,40.57
2022-08-20T10:03:42.934Z,40.97
2022-08-20T10:06:10.900Z,41.00
2022-08-20T10:08:38.156Z,40.72
2022-08-20T10:11:05.512Z,41.01
2022-08-20T10:13:32.236Z,41.04
2022-08-20T10:15:59.028Z,40.44
2022-08-20T10:18:25.840Z,40.57
2022-08-20T10:20:52.787Z,40.34
2022-08-20T10:23:19.517Z,40.21
2022-08-20T10:25:46.584Z,39.23
2022-08-20T10:28:13.569Z,39.65
2022-08-20T10:30:40.330Z,39.32
2022-08-20T10:33:07.143Z,39.80
2022-08-20T10:35:34.778Z,39.53
2022-08-20T10:38:01.725Z,39.14
2022-08-20T10:40:28.799Z,38.63
2022-08-20T10:42:55.824Z,38.30
2022-08-20T10:45:25.131Z,38.01
2022-08-20T10:47:51.933Z,38.17
2022-08-20T10:50:19.636Z,37.90
2022-08-20T10:52:46.991Z,38.06
2022-08-20T10:55:14.142Z,38.14
2022-08-20T10:57:43.494Z,38.12
2022-08-20T11:00:14.756Z,38.12
2022-08-20T11:02:42.073Z,38.18
2022-08-20T11:05:09.380Z,38.28
2022-08-20T11:07:55.183Z,38.41
2022-08-20T11:10:26.087Z,38.58
2022-08-20T11:12:53.656Z,39.16
2022-08-20T11:15:20.850Z,39.15
2022-08-20T11:17:47.696Z,39.25
2022-08-20T11:20:18.311Z,39.29
2022-08-20T11:22:46.198Z,39.68
2022-08-20T11:25:14.193Z,39.91
2022-08-20T11:27:45.740Z,39.94
2022-08-20T11:30:23.933Z,39.86
2022-08-20T11:32:51.413Z,40.02
2022-08-20T11:38:07.470Z,40.44
2022-08-20T11:40:34.727Z,40.22
2022-08-20T11:43:18.051Z,40.84
2022-08-20T11:45:47.437Z,40.42
2022-08-20T11:48:14.652Z,40.63
2022-08-20T11:50:41.601Z,40.89
2022-08-20T11:53:08.553Z,41.54
2022-08-20T11:55:37.025Z,41.69
2022-08-20T11:58:03.808Z,42.20
2022-08-20T12:00:33.985Z,42.24
2022-08-20T12:03:04.365Z,42.92
2022-08-20T12:05:31.789Z,43.24
2022-08-20T12:08:00.842Z,43.58
2022-08-20T12:10:28.567Z,43.63
2022-08-20T12:12:56.313Z,43.26
2022-08-20T12:15:26.257Z,43.55
2022-08-20T12:17:54.934Z,43.45
2022-08-20T12:20:23.199Z,43.65
2022-08-20T12:22:50.521Z,44.00
2022-08-20T12:25:17.603Z,44.43
2022-08-20T12:27:46.135Z,44.77
2022-08-20T12:30:17.270Z,44.82
2022-08-20T12:32:44.832Z,45.79
2022-08-20T12:35:13.617Z,47.01
2022-08-20T12:37:42.434Z,48.01
2022-08-20T12:40:17.340Z,49.26
2022-08-20T12:42:54.276Z,49.68
2022-08-20T12:45:24.213Z,49.92
2022-08-20T12:47:51.145Z,50.35
2022-08-20T12:50:28.475Z,50.33
2022-08-20T12:52:58.802Z,49.88
2022-08-20T12:55:26.427Z,50.24
2022-08-20T12:57:56.534Z,50.84
2022-08-20T13:00:35.276Z,51.80
2022-08-20T13:03:06.213Z,53.30
2022-08-20T13:05:34.902Z,54.24
2022-08-20T13:08:07.361Z,56.53
2022-08-20T13:10:37.490Z,58.41
2022-08-20T13:13:04.262Z,60.30
2022-08-20T13:15:32.284Z,62.77
2022-08-20T13:18:01.894Z,65.88
2022-08-20T13:20:31.025Z,66.84
2022-08-20T13:23:03.736Z,65.65
2022-08-20T13:25:31.470Z,67.18
2022-08-20T13:28:01.673Z,68.96
2022-08-20T13:30:28.433Z,69.82
2022-08-20T13:32:55.685Z,69.89
2022-08-20T13:35:23.070Z,70.11
2022-08-20T13:37:50.319Z,70.03
2022-08-20T13:40:17.898Z,69.52
2022-08-20T13:42:45.629Z,69.28
2022-08-20T13:45:13.091Z,69.31
2022-08-20T13:47:41.568Z,69.16
2022-08-20T13:50:10.768Z,67.29
2022-08-20T13:52:38.050Z,66.09
2022-08-20T13:55:08.018Z,64.78
2022-08-20T13:57:35.732Z,65.04
2022-08-20T14:00:06.466Z,65.33
2022-08-20T14:02:33.121Z,65.53
2022-08-20T14:05:00.028Z,66.40
2022-08-20T14:07:32.568Z,65.74
2022-08-20T14:10:05.699Z,65.48
2022-08-20T14:12:32.977Z,64.55
2022-08-20T14:14:59.919Z,64.24
2022-08-20T14:17:30.359Z,63.21
2022-08-20T14:20:07.806Z,62.71
2022-08-20T14:22:36.734Z,62.32
2022-08-20T14:25:06.156Z,61.79
2022-08-20T14:27:33.464Z,61.77
2022-08-20T14:30:01.898Z,61.29
2022-08-20T14:32:28.841Z,60.70
2022-08-20T14:34:58.661Z,60.25
2022-08-20T14:37:32.524Z,59.43
2022-08-20T14:40:02.405Z,58.62
2022-08-20T14:42:30.110Z,58.06
2022-08-20T14:44:58.631Z,57.81
2022-08-20T14:47:31.584Z,57.74
2022-08-20T14:50:04.722Z,57.53
2022-08-20T14:52:33.360Z,57.13
2022-08-20T14:55:00.197Z,57.27
2022-08-20T14:57:27.356Z,55.89
2022-08-20T14:59:54.305Z,55.73
2022-08-20T15:02:21.970Z,55.05
2022-08-20T15:04:54.454Z,54.78
2022-08-20T15:07:27.762Z,54.51
2022-08-20T15:09:55.541Z,54.97
2022-08-20T15:12:23.846Z,55.86
2022-08-20T15:14:51.090Z,56.72
2022-08-20T15:17:20.033Z,57.82
2022-08-20T15:19:47.666Z,58.50
2022-08-20T15:22:15.054Z,59.17
2022-08-20T15:24:42.686Z,59.29
2022-08-20T15:27:22.476Z,58.76
2022-08-20T15:29:51.461Z,58.27
2022-08-20T15:32:19.458Z,58.10
2022-08-20T15:34:46.606Z,58.30
2022-08-20T15:37:21.393Z,58.46
2022-08-20T15:39:49.977Z,58.08
2022-08-20T15:42:19.712Z,57.66
2022-08-20T15:44:46.529Z,56.76
2022-08-20T15:47:16.377Z,56.60
2022-08-20T15:49:44.181Z,56.68
2022-08-20T15:52:11.826Z,56.60
2022-08-20T15:54:39.189Z,56.76
2022-08-20T15:57:28.029Z,56.96
2022-08-20T16:00:13.304Z,57.26
2022-08-20T16:03:13.832Z,56.90
2022-08-20T16:06:00.794Z,57.30
2022-08-20T16:09:06.202Z,57.70
2022-08-20T16:11:53.577Z,57.95
2022-08-20T16:14:33.989Z,57.93
2022-08-20T16:17:06.408Z,58.76
2022-08-20T16:20:35.263Z,58.63
2022-08-20T16:23:03.888Z,58.56
2022-08-20T16:25:42.987Z,59.12
2022-08-20T16:28:16.549Z,59.69
2022-08-20T16:30:46.705Z,59.69
2022-08-20T16:33:44.918Z,59.84
2022-08-20T16:36:34.196Z,60.57
2022-08-20T16:39:05.183Z,60.27
2022-08-20T16:41:39.108Z,60.79
2022-08-20T16:44:32.160Z,60.94
2022-08-20T16:47:31.499Z,60.52
2022-08-20T16:50:03.660Z,60.16
2022-08-20T16:52:30.529Z,60.21
2022-08-20T16:54:57.945Z,60.50
2022-08-20T16:57:27.865Z,60.51
2022-08-20T17:00:12.527Z,60.60
2022-08-20T17:03:01.395Z,60.23
2022-08-20T17:05:37.248Z,60.60
2022-08-20T17:08:08.003Z,61.66
2022-08-20T17:10:53.666Z,61.72
2022-08-20T17:13:24.095Z,61.68
2022-08-20T17:16:04.562Z,61.25
2022-08-20T17:18:37.765Z,61.63
2022-08-20T17:21:25.506Z,61.32
2022-08-20T17:24:02.364Z,60.76
2022-08-20T17:26:30.889Z,60.68
2022-08-20T17:29:10.939Z,61.11
2022-08-20T17:31:59.850Z,61.09
2022-08-20T17:34:41.971Z,61.09
2022-08-20T17:37:29.558Z,61.04
2022-08-20T17:40:09.583Z,61.42
2022-08-20T17:42:52.066Z,61.32
2022-08-20T17:45:25.604Z,61.45
2022-08-20T17:47:55.964Z,61.69
2022-08-20T17:50:43.089Z,61.74
2022-08-20T17:53:26.617Z,61.79
2022-08-20T17:56:14.963Z,61.45
2022-08-20T17:59:10.407Z,61.46
2022-08-20T18:01:37.733Z,61.88
2022-08-20T18:04:05.148Z,61.90
2022-08-20T18:06:47.153Z,61.29
2022-08-20T18:09:43.621Z,61.32
2022-08-20T18:12:21.643Z,60.84
2022-08-20T18:15:16.066Z,60.59
2022-08-20T18:17:45.885Z,60.04
2022-08-20T18:20:50.142Z,60.28
2022-08-20T18:23:30.896Z,60.42
2022-08-20T18:26:21.356Z,60.39
2022-08-20T18:28:54.475Z,60.50
2022-08-20T18:31:26.431Z,61.12
2022-08-20T18:33:54.196Z,61.06
2022-08-20T18:36:21.054Z,61.39
2022-08-20T18:39:02.543Z,61.61
2022-08-20T18:41:38.384Z,61.82
2022-08-20T18:44:13.014Z,61.47
2022-08-20T18:46:59.553Z,61.82
2022-08-20T18:49:36.397Z,62.02
2022-08-20T18:52:09.591Z,62.95
2022-08-20T18:54:37.812Z,62.35
2022-08-20T18:57:23.250Z,63.16
2022-08-20T19:00:11.744Z,62.52
2022-08-20T19:02:57.366Z,62.30
2022-08-20T19:05:36.286Z,62.25
2022-08-20T19:08:06.037Z,62.41
2022-08-20T19:11:00.917Z,62.73
2022-08-20T19:13:46.347Z,63.21
2022-08-20T19:16:58.433Z,63.44
2022-08-20T19:19:29.648Z,63.50
2022-08-20T19:22:01.462Z,63.49
2022-08-20T19:24:34.926Z,63.53
2022-08-20T19:27:08.129Z,64.07
2022-08-20T19:29:39.381Z,64.67
2022-08-20T19:32:09.003Z,64.70
2022-08-20T19:34:36.536Z,64.77
2022-08-20T19:37:35.023Z,64.98
2022-08-20T19:39:58.502Z,65.76
2022-08-20T19:42:30.793Z,65.90
2022-08-20T19:45:07.201Z,66.26
2022-08-20T19:47:39.985Z,66.13
2022-08-20T19:50:22.220Z,65.81
2022-08-20T19:53:01.041Z,65.51
2022-08-20T19:55:31.701Z,64.82
2022-08-20T19:58:06.511Z,65.67
2022-08-20T20:00:41.668Z,65.44
2022-08-20T20:03:30.313Z,65.34
2022-08-20T20:06:02.166Z,65.63
2022-08-20T20:08:38.748Z,65.83
2022-08-20T20:11:06.113Z,66.35
2022-08-20T20:13:39.940Z,66.39
2022-08-20T20:16:06.966Z,65.74
2022-08-20T20:18:38.653Z,66.35
2022-08-20T20:21:33.105Z,66.41
2022-08-20T20:24:01.399Z,66.56
2022-08-20T20:26:36.275Z,66.90
2022-08-20T20:29:16.271Z,67.22
2022-08-20T20:31:55.987Z,67.36
2022-08-20T20:34:35.911Z,67.12
2022-08-20T20:37:12.184Z,67.44
2022-08-20T20:39:43.403Z,67.50
2022-08-20T20:42:25.653Z,67.62
2022-08-20T20:44:53.744Z,67.87
2022-08-20T20:47:26.205Z,67.97
2022-08-20T20:50:04.451Z,68.03
2022-08-20T20:52:35.619Z,68.19
2022-08-20T20:55:15.464Z,68.38
2022-08-20T20:57:42.240Z,68.38
2022-08-20T21:00:13.541Z,67.99
2022-08-20T21:02:41.000Z,68.35
2022-08-20T21:05:09.071Z,68.16
2022-08-20T21:07:45.981Z,68.48
2022-08-20T21:10:21.058Z,68.70
2022-08-20T21:12:56.687Z,69.02
2022-08-20T21:15:25.699Z,69.26
2022-08-20T21:17:53.475Z,69.06
2022-08-20T21:20:21.573Z,69.29
2022-08-20T21:22:48.626Z,69.60
2022-08-20T21:25:18.168Z,69.94
2022-08-20T21:27:48.153Z,70.25
2022-08-20T21:30:16.749Z,69.95
2022-08-20T21:32:43.786Z,70.11
2022-08-20T21:35:11.555Z,70.09
2022-08-20T21:37:38.932Z,70.18
2022-08-20T21:40:08.433Z,69.80
2022-08-20T21:42:37.530Z,69.06
2022-08-20T21:45:10.897Z,68.53
2022-08-20T21:47:37.674Z,69.42
2022-08-20T21:50:06.012Z,70.01
2022-08-20T21:52:33.085Z,70.00
2022-08-20T21:55:02.478Z,70.17
2022-08-20T21:57:32.691Z,69.94
2022-08-20T22:00:01.840Z,69.32
2022-08-20T22:02:31.837Z,69.01
2022-08-20T22:04:58.571Z,68.90
2022-08-20T22:07:25.580Z,68.88
2022-08-20T22:09:52.299Z,69.22
2022-08-20T22:12:22.570Z,69.12
2022-08-20T22:14:49.985Z,69.29
2022-08-20T22:17:16.993Z,69.33
2022-08-20T22:19:43.757Z,69.28
2022-08-20T22:22:12.599Z,69.84
2022-08-20T22:24:39.499Z,69.38
2022-08-20T22:27:07.281Z,68.78
2022-08-20T22:29:34.596Z,68.62
2022-08-20T22:32:02.062Z,69.03
2022-08-20T22:34:31.563Z,69.75
2022-08-20T22:37:00.271Z,69.83
2022-08-20T22:39:27.432Z,69.55
2022-08-20T22:41:54.965Z,69.38
2022-08-20T22:44:21.912Z,69.29
2022-08-20T22:46:52.700Z,68.99
2022-08-20T22:49:26.166Z,68.59
2022-08-20T22:51:53.220Z,68.55
2022-08-20T22:54:22.533Z,68.56
2022-08-20T22:56:51.016Z,68.36
2022-08-20T22:59:19.282Z,68.47
2022-08-20T23:01:46.341Z,68.23
2022-08-20T23:04:21.736Z,68.34
2022-08-20T23:06:48.484Z,67.93
2022-08-20T23:09:15.482Z,67.56
2022-08-20T23:11:48.757Z,67.39
2022-08-20T23:14:16.403Z,67.58
2022-08-20T23:16:45.714Z,67.84
2022-08-20T23:19:21.051Z,67.63
2022-08-20T23:21:49.653Z,67.82
2022-08-20T23:24:16.481Z,68.27
2022-08-20T23:26:51.301Z,68.33
2022-08-20T23:29:25.883Z,68.02
2022-08-20T23:31:57.049Z,68.14
2022-08-20T23:34:25.775Z,68.18
2022-08-20T23:36:53.657Z,67.66
2022-08-20T23:39:21.619Z,67.40
2022-08-20T23:41:48.482Z,67.61
2022-08-20T23:44:25.717Z,67.43
2022-08-20T23:47:01.596Z,67.53
2022-08-20T23:49:30.009Z,67.72
2022-08-20T23:52:00.009Z,67.60
2022-08-20T23:54:31.377Z,67.51
2022-08-20T23:56:58.427Z,67.52
2022-08-20T23:59:25.796Z,67.75
